sensor_id;sensor_type;location;lat;lon;timestamp;pressure;altitude;pressure_sealevel;temperature;humidity
44044;BME280;29709;52.396;16.796;2023-02-21T00:00:58;100764.19;;;10.67;78.56
44044;BME280;29709;52.396;16.796;2023-02-21T00:04:13;100777.25;;;10.65;78.50
44044;BME280;29709;52.396;16.796;2023-02-21T00:07:28;100767.45;;;10.63;78.93
44044;BME280;29709;52.396;16.796;2023-02-21T00:10:43;100762.65;;;10.65;78.91
44044;BME280;29709;52.396;16.796;2023-02-21T00:13:58;100768.66;;;10.68;78.79
44044;BME280;29709;52.396;16.796;2023-02-21T00:17:13;100764.88;;;10.69;78.84
44044;BME280;29709;52.396;16.796;2023-02-21T00:20:28;100777.58;;;10.70;79.11
44044;BME280;29709;52.396;16.796;2023-02-21T00:23:43;100774.65;;;10.56;81.23
44044;BME280;29709;52.396;16.796;2023-02-21T00:26:58;100780.64;;;10.51;81.38
44044;BME280;29709;52.396;16.796;2023-02-21T00:30:14;100772.23;;;10.45;81.84
44044;BME280;29709;52.396;16.796;2023-02-21T00:33:29;100761.90;;;10.38;82.72
44044;BME280;29709;52.396;16.796;2023-02-21T00:36:44;100783.19;;;10.36;83.06
44044;BME280;29709;52.396;16.796;2023-02-21T00:39:59;100780.07;;;10.31;83.43
44044;BME280;29709;52.396;16.796;2023-02-21T00:43:14;100785.91;;;10.28;83.99
44044;BME280;29709;52.396;16.796;2023-02-21T00:46:30;100778.18;;;10.24;84.19
44044;BME280;29709;52.396;16.796;2023-02-21T00:49:45;100773.65;;;10.15;85.37
44044;BME280;29709;52.396;16.796;2023-02-21T00:53:00;100781.37;;;10.11;85.81
44044;BME280;29709;52.396;16.796;2023-02-21T00:56:15;100792.66;;;10.08;86.43
44044;BME280;29709;52.396;16.796;2023-02-21T00:59:30;100797.80;;;10.03;86.79
44044;BME280;29709;52.396;16.796;2023-02-21T01:02:45;100793.48;;;10.00;87.18
44044;BME280;29709;52.396;16.796;2023-02-21T01:06:00;100788.88;;;10.01;87.58
44044;BME280;29709;52.396;16.796;2023-02-21T01:09:15;100799.48;;;9.96;87.81
44044;BME280;29709;52.396;16.796;2023-02-21T01:12:30;100789.19;;;9.98;87.52
44044;BME280;29709;52.396;16.796;2023-02-21T01:15:45;100780.60;;;9.93;88.10
44044;BME280;29709;52.396;16.796;2023-02-21T01:19:00;100766.31;;;9.89;88.40
44044;BME280;29709;52.396;16.796;2023-02-21T01:22:15;100774.90;;;9.86;88.60
44044;BME280;29709;52.396;16.796;2023-02-21T01:25:30;100755.51;;;9.88;88.79
44044;BME280;29709;52.396;16.796;2023-02-21T01:28:46;100753.79;;;9.87;88.59
44044;BME280;29709;52.396;16.796;2023-02-21T01:32:02;100761.98;;;9.78;89.17
44044;BME280;29709;52.396;16.796;2023-02-21T01:35:17;100742.94;;;9.77;89.05
44044;BME280;29709;52.396;16.796;2023-02-21T01:38:35;100752.20;;;9.76;89.03
44044;BME280;29709;52.396;16.796;2023-02-21T01:41:50;100750.65;;;9.73;89.13
44044;BME280;29709;52.396;16.796;2023-02-21T01:48:32;100739.15;;;9.70;89.00
44044;BME280;29709;52.396;16.796;2023-02-21T01:51:48;100748.55;;;9.67;89.40
44044;BME280;29709;52.396;16.796;2023-02-21T01:55:07;100743.06;;;9.67;89.33
44044;BME280;29709;52.396;16.796;2023-02-21T01:58:23;100761.59;;;9.65;89.71
44044;BME280;29709;52.396;16.796;2023-02-21T02:05:08;100764.72;;;9.70;89.79
44044;BME280;29709;52.396;16.796;2023-02-21T02:08:28;100757.86;;;9.74;89.81
44044;BME280;29709;52.396;16.796;2023-02-21T02:11:55;100748.26;;;9.78;89.65
44044;BME280;29709;52.396;16.796;2023-02-21T02:15:25;100747.10;;;9.81;89.61
44044;BME280;29709;52.396;16.796;2023-02-21T02:22:01;100747.78;;;9.83;89.01
44044;BME280;29709;52.396;16.796;2023-02-21T02:25:13;100754.98;;;9.84;89.03
44044;BME280;29709;52.396;16.796;2023-02-21T02:34:51;100757.39;;;9.87;88.56
44044;BME280;29709;52.396;16.796;2023-02-21T02:38:02;100745.38;;;9.88;88.74
44044;BME280;29709;52.396;16.796;2023-02-21T02:44:34;100731.15;;;9.84;88.45
44044;BME280;29709;52.396;16.796;2023-02-21T02:47:42;100749.50;;;9.84;87.83
44044;BME280;29709;52.396;16.796;2023-02-21T02:50:49;100760.14;;;9.87;87.05
44044;BME280;29709;52.396;16.796;2023-02-21T02:53:53;100764.77;;;9.87;87.04
44044;BME280;29709;52.396;16.796;2023-02-21T02:57:21;100781.08;;;9.88;87.13
44044;BME280;29709;52.396;16.796;2023-02-21T03:00:24;100768.93;;;9.91;86.85
44044;BME280;29709;52.396;16.796;2023-02-21T03:03:42;100779.74;;;9.92;87.14
44044;BME280;29709;52.396;16.796;2023-02-21T03:13:21;100789.00;;;9.91;87.94
44044;BME280;29709;52.396;16.796;2023-02-21T03:16:33;100771.50;;;9.92;87.74
44044;BME280;29709;52.396;16.796;2023-02-21T03:19:39;100764.82;;;9.95;87.22
44044;BME280;29709;52.396;16.796;2023-02-21T03:22:49;100776.66;;;9.95;86.92
44044;BME280;29709;52.396;16.796;2023-02-21T03:25:58;100780.60;;;9.93;86.96
44044;BME280;29709;52.396;16.796;2023-02-21T03:29:03;100793.46;;;9.92;86.75
44044;BME280;29709;52.396;16.796;2023-02-21T03:32:39;100781.98;;;9.97;86.39
44044;BME280;29709;52.396;16.796;2023-02-21T03:35:44;100782.31;;;9.94;86.49
44044;BME280;29709;52.396;16.796;2023-02-21T03:38:48;100777.30;;;9.89;86.39
44044;BME280;29709;52.396;16.796;2023-02-21T03:41:51;100772.84;;;9.80;86.69
44044;BME280;29709;52.396;16.796;2023-02-21T03:44:54;100804.87;;;9.79;87.03
44044;BME280;29709;52.396;16.796;2023-02-21T03:47:57;100787.93;;;9.84;86.46
44044;BME280;29709;52.396;16.796;2023-02-21T03:51:04;100808.01;;;9.84;86.07
44044;BME280;29709;52.396;16.796;2023-02-21T03:54:07;100817.79;;;9.87;85.72
44044;BME280;29709;52.396;16.796;2023-02-21T03:57:36;100811.27;;;9.88;85.64
44044;BME280;29709;52.396;16.796;2023-02-21T04:00:39;100816.81;;;9.96;85.64
44044;BME280;29709;52.396;16.796;2023-02-21T04:03:42;100814.59;;;10.00;85.76
44044;BME280;29709;52.396;16.796;2023-02-21T04:06:45;100826.08;;;9.95;85.73
44044;BME280;29709;52.396;16.796;2023-02-21T04:09:48;100823.79;;;9.82;85.86
44044;BME280;29709;52.396;16.796;2023-02-21T04:12:52;100815.66;;;9.73;85.69
44044;BME280;29709;52.396;16.796;2023-02-21T04:15:55;100805.66;;;9.64;86.09
44044;BME280;29709;52.396;16.796;2023-02-21T04:18:58;100806.84;;;9.61;86.18
44044;BME280;29709;52.396;16.796;2023-02-21T04:22:01;100813.83;;;9.55;85.95
44044;BME280;29709;52.396;16.796;2023-02-21T04:25:06;100802.16;;;9.53;86.43
44044;BME280;29709;52.396;16.796;2023-02-21T04:28:33;100822.05;;;9.55;86.68
44044;BME280;29709;52.396;16.796;2023-02-21T04:31:37;100809.76;;;9.60;86.33
44044;BME280;29709;52.396;16.796;2023-02-21T04:34:40;100810.45;;;9.62;85.94
44044;BME280;29709;52.396;16.796;2023-02-21T04:37:44;100803.25;;;9.61;85.19
44044;BME280;29709;52.396;16.796;2023-02-21T04:40:47;100817.82;;;9.61;84.76
44044;BME280;29709;52.396;16.796;2023-02-21T04:43:50;100818.98;;;9.59;84.05
44044;BME280;29709;52.396;16.796;2023-02-21T04:46:55;100801.36;;;9.61;83.55
44044;BME280;29709;52.396;16.796;2023-02-21T04:49:58;100806.84;;;9.61;82.89
44044;BME280;29709;52.396;16.796;2023-02-21T04:53:02;100814.91;;;9.63;82.94
44044;BME280;29709;52.396;16.796;2023-02-21T04:56:05;100829.16;;;9.66;82.76
44044;BME280;29709;52.396;16.796;2023-02-21T04:59:33;100825.66;;;9.56;81.94
44044;BME280;29709;52.396;16.796;2023-02-21T05:02:36;100818.98;;;9.59;82.09
44044;BME280;29709;52.396;16.796;2023-02-21T05:05:40;100821.89;;;9.57;80.90
44044;BME280;29709;52.396;16.796;2023-02-21T05:08:43;100822.92;;;9.56;79.81
44044;BME280;29709;52.396;16.796;2023-02-21T05:11:46;100832.88;;;9.57;77.83
44044;BME280;29709;52.396;16.796;2023-02-21T05:14:50;100828.91;;;9.51;76.67
44044;BME280;29709;52.396;16.796;2023-02-21T05:17:53;100843.26;;;9.45;76.55
44044;BME280;29709;52.396;16.796;2023-02-21T05:20:56;100830.65;;;9.35;76.07
44044;BME280;29709;52.396;16.796;2023-02-21T05:23:59;100824.30;;;9.34;76.75
44044;BME280;29709;52.396;16.796;2023-02-21T05:27:31;100834.91;;;9.29;75.74
44044;BME280;29709;52.396;16.796;2023-02-21T05:30:34;100840.86;;;9.24;75.87
44044;BME280;29709;52.396;16.796;2023-02-21T05:33:38;100837.58;;;9.21;75.98
44044;BME280;29709;52.396;16.796;2023-02-21T05:36:41;100825.19;;;9.17;74.95
44044;BME280;29709;52.396;16.796;2023-02-21T05:39:44;100817.98;;;9.16;75.20
44044;BME280;29709;52.396;16.796;2023-02-21T05:42:47;100818.47;;;9.11;75.33
44044;BME280;29709;52.396;16.796;2023-02-21T05:45:51;100838.45;;;9.04;75.36
44044;BME280;29709;52.396;16.796;2023-02-21T05:48:56;100853.34;;;9.01;75.41
44044;BME280;29709;52.396;16.796;2023-02-21T05:52:00;100844.80;;;9.04;75.67
44044;BME280;29709;52.396;16.796;2023-02-21T05:55:03;100863.12;;;9.04;75.41
44044;BME280;29709;52.396;16.796;2023-02-21T05:58:31;100872.90;;;9.06;74.82
44044;BME280;29709;52.396;16.796;2023-02-21T06:01:35;100861.23;;;9.04;74.60
44044;BME280;29709;52.396;16.796;2023-02-21T06:04:38;100864.84;;;9.05;73.87
44044;BME280;29709;52.396;16.796;2023-02-21T06:07:41;100876.99;;;9.02;73.69
44044;BME280;29709;52.396;16.796;2023-02-21T06:10:45;100886.06;;;9.03;73.87
44044;BME280;29709;52.396;16.796;2023-02-21T06:13:51;100880.44;;;9.04;73.20
44044;BME280;29709;52.396;16.796;2023-02-21T06:16:54;100891.56;;;9.03;73.79
44044;BME280;29709;52.396;16.796;2023-02-21T06:19:58;100899.77;;;9.03;73.58
44044;BME280;29709;52.396;16.796;2023-02-21T06:23:01;100910.91;;;9.01;73.39
44044;BME280;29709;52.396;16.796;2023-02-21T06:26:31;100914.83;;;8.99;73.42
44044;BME280;29709;52.396;16.796;2023-02-21T06:29:34;100920.76;;;8.94;73.68
44044;BME280;29709;52.396;16.796;2023-02-21T06:32:37;100917.32;;;8.92;73.69
44044;BME280;29709;52.396;16.796;2023-02-21T06:35:40;100915.27;;;8.94;73.57
44044;BME280;29709;52.396;16.796;2023-02-21T06:38:46;100925.37;;;8.93;72.25
44044;BME280;29709;52.396;16.796;2023-02-21T06:41:53;100923.51;;;8.94;71.78
44044;BME280;29709;52.396;16.796;2023-02-21T06:44:56;100917.63;;;8.89;71.10
44044;BME280;29709;52.396;16.796;2023-02-21T06:47:59;100939.56;;;8.89;71.11
44044;BME280;29709;52.396;16.796;2023-02-21T06:51:02;100948.11;;;8.86;69.54
44044;BME280;29709;52.396;16.796;2023-02-21T06:54:36;100942.62;;;8.86;69.93
44044;BME280;29709;52.396;16.796;2023-02-21T06:57:41;100943.32;;;8.88;68.88
44044;BME280;29709;52.396;16.796;2023-02-21T07:00:44;100960.79;;;8.87;69.06
44044;BME280;29709;52.396;16.796;2023-02-21T07:03:48;100984.44;;;8.88;68.65
44044;BME280;29709;52.396;16.796;2023-02-21T07:06:51;100970.96;;;8.94;68.26
44044;BME280;29709;52.396;16.796;2023-02-21T07:09:55;100969.02;;;9.05;67.30
44044;BME280;29709;52.396;16.796;2023-02-21T07:12:58;100990.02;;;9.14;66.67
44044;BME280;29709;52.396;16.796;2023-02-21T07:16:02;100993.20;;;9.19;67.06
44044;BME280;29709;52.396;16.796;2023-02-21T07:19:06;101011.91;;;9.23;65.52
44044;BME280;29709;52.396;16.796;2023-02-21T07:22:35;101028.62;;;9.30;65.41
44044;BME280;29709;52.396;16.796;2023-02-21T07:25:38;101016.95;;;9.28;64.15
44044;BME280;29709;52.396;16.796;2023-02-21T07:28:41;101006.36;;;9.33;63.75
44044;BME280;29709;52.396;16.796;2023-02-21T07:31:45;101003.30;;;9.36;63.65
44044;BME280;29709;52.396;16.796;2023-02-21T07:34:48;101002.27;;;9.37;61.90
44044;BME280;29709;52.396;16.796;2023-02-21T07:37:51;101018.19;;;9.34;61.70
44044;BME280;29709;52.396;16.796;2023-02-21T07:40:59;101015.70;;;9.40;63.32
44044;BME280;29709;52.396;16.796;2023-02-21T07:44:03;101019.53;;;9.47;62.75
44044;BME280;29709;52.396;16.796;2023-02-21T07:47:06;101021.41;;;9.47;63.01
44044;BME280;29709;52.396;16.796;2023-02-21T07:50:37;101026.77;;;9.48;62.77
44044;BME280;29709;52.396;16.796;2023-02-21T07:53:40;101025.49;;;9.43;62.53
44044;BME280;29709;52.396;16.796;2023-02-21T07:56:47;101032.33;;;9.39;63.07
44044;BME280;29709;52.396;16.796;2023-02-21T07:59:51;101030.12;;;9.42;64.02
44044;BME280;29709;52.396;16.796;2023-02-21T08:02:54;101030.45;;;9.39;63.35
44044;BME280;29709;52.396;16.796;2023-02-21T08:05:58;101033.48;;;9.36;63.12
44044;BME280;29709;52.396;16.796;2023-02-21T08:09:03;101043.58;;;9.36;63.29
44044;BME280;29709;52.396;16.796;2023-02-21T08:12:08;101041.00;;;9.34;63.47
44044;BME280;29709;52.396;16.796;2023-02-21T08:15:11;101034.98;;;9.31;63.99
44044;BME280;29709;52.396;16.796;2023-02-21T08:18:39;101066.00;;;9.31;64.29
44044;BME280;29709;52.396;16.796;2023-02-21T08:21:47;101070.78;;;9.29;64.50
44044;BME280;29709;52.396;16.796;2023-02-21T08:24:50;101056.65;;;9.24;64.38
44044;BME280;29709;52.396;16.796;2023-02-21T08:27:54;101065.20;;;9.21;64.64
44044;BME280;29709;52.396;16.796;2023-02-21T08:30:57;101076.05;;;9.13;64.24
44044;BME280;29709;52.396;16.796;2023-02-21T08:34:00;101080.36;;;9.15;64.97
44044;BME280;29709;52.396;16.796;2023-02-21T08:37:03;101086.43;;;9.19;64.62
44044;BME280;29709;52.396;16.796;2023-02-21T08:40:19;101090.31;;;9.16;64.21
44044;BME280;29709;52.396;16.796;2023-02-21T08:43:48;101095.09;;;9.14;64.17
44044;BME280;29709;52.396;16.796;2023-02-21T08:46:51;101093.53;;;9.12;63.48
44044;BME280;29709;52.396;16.796;2023-02-21T08:49:54;101105.67;;;9.09;62.85
44044;BME280;29709;52.396;16.796;2023-02-21T08:52:57;101107.55;;;9.09;62.45
44044;BME280;29709;52.396;16.796;2023-02-21T08:56:00;101116.05;;;9.06;62.90
44044;BME280;29709;52.396;16.796;2023-02-21T08:59:03;101126.03;;;9.07;62.71
44044;BME280;29709;52.396;16.796;2023-02-21T09:02:17;101123.14;;;9.08;62.92
44044;BME280;29709;52.396;16.796;2023-02-21T09:05:24;101121.66;;;9.14;63.24
44044;BME280;29709;52.396;16.796;2023-02-21T09:08:53;101129.88;;;9.14;63.20
44044;BME280;29709;52.396;16.796;2023-02-21T09:11:57;101130.62;;;9.06;62.63
44044;BME280;29709;52.396;16.796;2023-02-21T09:15:00;101123.30;;;9.07;62.17
44044;BME280;29709;52.396;16.796;2023-02-21T09:18:03;101128.03;;;9.05;62.21
44044;BME280;29709;52.396;16.796;2023-02-21T09:21:08;101145.94;;;9.09;62.64
44044;BME280;29709;52.396;16.796;2023-02-21T09:24:11;101154.16;;;9.09;62.14
44044;BME280;29709;52.396;16.796;2023-02-21T09:27:14;101141.55;;;9.16;61.90
44044;BME280;29709;52.396;16.796;2023-02-21T09:30:22;101149.94;;;9.14;62.00
44044;BME280;29709;52.396;16.796;2023-02-21T09:33:27;101158.44;;;9.21;61.75
44044;BME280;29709;52.396;16.796;2023-02-21T09:36:58;101146.91;;;9.17;62.35
44044;BME280;29709;52.396;16.796;2023-02-21T09:40:01;101162.91;;;9.22;62.20
44044;BME280;29709;52.396;16.796;2023-02-21T09:43:15;101157.11;;;9.25;62.48
44044;BME280;29709;52.396;16.796;2023-02-21T09:49:41;101165.34;;;9.25;62.16
44044;BME280;29709;52.396;16.796;2023-02-21T09:53:15;101172.15;;;9.21;62.32
44044;BME280;29709;52.396;16.796;2023-02-21T09:59:36;101179.05;;;9.25;62.48
44044;BME280;29709;52.396;16.796;2023-02-21T10:02:51;101184.13;;;9.20;61.99
44044;BME280;29709;52.396;16.796;2023-02-21T10:09:51;101189.34;;;9.13;61.80
44044;BME280;29709;52.396;16.796;2023-02-21T10:16:16;101192.40;;;9.10;62.00
44044;BME280;29709;52.396;16.796;2023-02-21T10:23:01;101207.09;;;9.19;62.26
44044;BME280;29709;52.396;16.796;2023-02-21T10:26:11;101208.36;;;9.24;62.18
44044;BME280;29709;52.396;16.796;2023-02-21T10:29:21;101209.68;;;9.20;61.90
44044;BME280;29709;52.396;16.796;2023-02-21T10:32:26;101213.84;;;9.24;61.60
44044;BME280;29709;52.396;16.796;2023-02-21T10:35:32;101214.13;;;9.31;61.49
44044;BME280;29709;52.396;16.796;2023-02-21T10:38:37;101209.80;;;9.29;61.35
44044;BME280;29709;52.396;16.796;2023-02-21T10:48:46;101219.72;;;9.39;61.98
44044;BME280;29709;52.396;16.796;2023-02-21T10:55:14;101234.30;;;9.40;61.38
44044;BME280;29709;52.396;16.796;2023-02-21T10:58:23;101227.33;;;9.45;61.01
44044;BME280;29709;52.396;16.796;2023-02-21T11:01:33;101229.67;;;9.40;61.18
44044;BME280;29709;52.396;16.796;2023-02-21T11:04:37;101226.93;;;9.40;61.48
44044;BME280;29709;52.396;16.796;2023-02-21T11:10:57;101217.23;;;9.46;61.01
44044;BME280;29709;52.396;16.796;2023-02-21T11:14:26;101237.30;;;9.46;61.44
44044;BME280;29709;52.396;16.796;2023-02-21T11:17:31;101228.27;;;9.64;61.53
44044;BME280;29709;52.396;16.796;2023-02-21T11:20:34;101224.20;;;9.68;60.82
44044;BME280;29709;52.396;16.796;2023-02-21T11:23:48;101224.77;;;9.71;60.25
44044;BME280;29709;52.396;16.796;2023-02-21T11:26:53;101230.77;;;9.84;59.85
44044;BME280;29709;52.396;16.796;2023-02-21T11:29:57;101226.55;;;9.90;59.35
44044;BME280;29709;52.396;16.796;2023-02-21T11:33:01;101240.20;;;10.00;59.92
44044;BME280;29709;52.396;16.796;2023-02-21T11:36:33;101245.77;;;9.90;59.16
44044;BME280;29709;52.396;16.796;2023-02-21T11:39:37;101244.33;;;9.86;58.64
44044;BME280;29709;52.396;16.796;2023-02-21T11:42:43;101256.02;;;9.88;59.08
44044;BME280;29709;52.396;16.796;2023-02-21T11:49:14;101250.37;;;9.90;59.91
44044;BME280;29709;52.396;16.796;2023-02-21T11:52:21;101258.48;;;9.91;59.22
44044;BME280;29709;52.396;16.796;2023-02-21T11:55:26;101254.01;;;9.90;59.64
44044;BME280;29709;52.396;16.796;2023-02-21T11:59:10;101259.63;;;9.89;59.86
44044;BME280;29709;52.396;16.796;2023-02-21T12:15:29;101254.14;;;9.89;59.55
44044;BME280;29709;52.396;16.796;2023-02-21T12:25:16;101252.04;;;10.00;60.53
44044;BME280;29709;52.396;16.796;2023-02-21T12:35:05;101264.91;;;10.00;59.92
44044;BME280;29709;52.396;16.796;2023-02-21T12:38:16;101253.05;;;9.99;60.49
44044;BME280;29709;52.396;16.796;2023-02-21T12:51:10;101269.40;;;9.73;60.08
44044;BME280;29709;52.396;16.796;2023-02-21T12:54:21;101278.22;;;9.67;60.49
44044;BME280;29709;52.396;16.796;2023-02-21T12:57:35;101267.01;;;9.61;60.22
44044;BME280;29709;52.396;16.796;2023-02-21T13:00:50;101275.08;;;9.62;60.66
44044;BME280;29709;52.396;16.796;2023-02-21T13:07:21;101279.12;;;9.58;60.78
44044;BME280;29709;52.396;16.796;2023-02-21T13:10:33;101288.96;;;9.61;60.52
44044;BME280;29709;52.396;16.796;2023-02-21T13:13:37;101295.59;;;9.58;61.41
44044;BME280;29709;52.396;16.796;2023-02-21T13:17:10;101284.37;;;9.51;60.78
44044;BME280;29709;52.396;16.796;2023-02-21T13:20:17;101294.48;;;9.51;60.70
44044;BME280;29709;52.396;16.796;2023-02-21T13:26:59;101284.67;;;9.48;60.97
44044;BME280;29709;52.396;16.796;2023-02-21T13:30:12;101287.11;;;9.51;61.43
44044;BME280;29709;52.396;16.796;2023-02-21T13:36:40;101296.20;;;9.52;61.41
44044;BME280;29709;52.396;16.796;2023-02-21T13:39:52;101293.30;;;9.53;61.18
44044;BME280;29709;52.396;16.796;2023-02-21T13:43:09;101300.95;;;9.60;61.67
44044;BME280;29709;52.396;16.796;2023-02-21T13:55:22;101303.70;;;9.60;61.94
44044;BME280;29709;52.396;16.796;2023-02-21T13:58:34;101304.95;;;9.65;61.61
44044;BME280;29709;52.396;16.796;2023-02-21T14:01:40;101303.24;;;9.64;61.08
44044;BME280;29709;52.396;16.796;2023-02-21T14:08:02;101315.39;;;9.62;61.14
44044;BME280;29709;52.396;16.796;2023-02-21T14:11:14;101313.66;;;9.61;61.13
44044;BME280;29709;52.396;16.796;2023-02-21T14:14:25;101307.43;;;9.59;60.72
44044;BME280;29709;52.396;16.796;2023-02-21T14:17:29;101314.09;;;9.56;61.26
44044;BME280;29709;52.396;16.796;2023-02-21T14:21:00;101313.53;;;9.52;61.46
44044;BME280;29709;52.396;16.796;2023-02-21T14:27:30;101317.14;;;9.53;61.17
44044;BME280;29709;52.396;16.796;2023-02-21T14:30:34;101316.12;;;9.54;60.83
44044;BME280;29709;52.396;16.796;2023-02-21T14:33:38;101322.32;;;9.56;61.22
44044;BME280;29709;52.396;16.796;2023-02-21T14:36:42;101333.88;;;9.60;60.76
44044;BME280;29709;52.396;16.796;2023-02-21T14:46:58;101329.13;;;9.52;61.11
44044;BME280;29709;52.396;16.796;2023-02-21T15:03:11;101344.98;;;9.58;61.42
44044;BME280;29709;52.396;16.796;2023-02-21T15:06:18;101341.81;;;9.63;61.77
44044;BME280;29709;52.396;16.796;2023-02-21T15:09:24;101338.05;;;9.64;61.60
44044;BME280;29709;52.396;16.796;2023-02-21T15:13:04;101338.35;;;9.61;61.34
44044;BME280;29709;52.396;16.796;2023-02-21T15:16:08;101342.12;;;9.60;60.62
44044;BME280;29709;52.396;16.796;2023-02-21T15:19:19;101347.17;;;9.54;60.94
44044;BME280;29709;52.396;16.796;2023-02-21T15:22:25;101352.37;;;9.48;61.03
44044;BME280;29709;52.396;16.796;2023-02-21T15:25:29;101356.57;;;9.52;61.39
44044;BME280;29709;52.396;16.796;2023-02-21T15:28:32;101360.48;;;9.49;60.84
44044;BME280;29709;52.396;16.796;2023-02-21T15:32:03;101379.70;;;9.40;60.63
44044;BME280;29709;52.396;16.796;2023-02-21T15:35:16;101360.65;;;9.38;60.97
44044;BME280;29709;52.396;16.796;2023-02-21T15:41:42;101366.85;;;9.40;61.03
44044;BME280;29709;52.396;16.796;2023-02-21T15:44:55;101370.46;;;9.41;61.22
44044;BME280;29709;52.396;16.796;2023-02-21T15:48:00;101363.52;;;9.37;61.44
44044;BME280;29709;52.396;16.796;2023-02-21T15:51:29;101372.91;;;9.34;61.67
44044;BME280;29709;52.396;16.796;2023-02-21T15:54:35;101374.64;;;9.35;61.67
44044;BME280;29709;52.396;16.796;2023-02-21T15:57:41;101382.87;;;9.35;61.55
44044;BME280;29709;52.396;16.796;2023-02-21T16:00:46;101386.78;;;9.33;61.48
44044;BME280;29709;52.396;16.796;2023-02-21T16:03:50;101391.25;;;9.34;61.87
44044;BME280;29709;52.396;16.796;2023-02-21T16:06:55;101391.10;;;9.35;61.99
44044;BME280;29709;52.396;16.796;2023-02-21T16:10:03;101397.18;;;9.29;61.59
44044;BME280;29709;52.396;16.796;2023-02-21T16:13:08;101393.70;;;9.27;61.50
44044;BME280;29709;52.396;16.796;2023-02-21T16:16:37;101403.69;;;9.18;61.91
44044;BME280;29709;52.396;16.796;2023-02-21T16:19:44;101406.13;;;9.21;61.92
44044;BME280;29709;52.396;16.796;2023-02-21T16:22:51;101412.33;;;9.23;61.85
44044;BME280;29709;52.396;16.796;2023-02-21T16:29:14;101400.09;;;9.18;62.06
44044;BME280;29709;52.396;16.796;2023-02-21T16:32:19;101419.40;;;9.16;62.22
44044;BME280;29709;52.396;16.796;2023-02-21T16:35:48;101419.13;;;9.10;62.72
44044;BME280;29709;52.396;16.796;2023-02-21T16:38:51;101424.45;;;9.11;62.92
44044;BME280;29709;52.396;16.796;2023-02-21T16:41:55;101434.41;;;9.12;62.77
44044;BME280;29709;52.396;16.796;2023-02-21T16:44:59;101429.65;;;9.14;62.73
44044;BME280;29709;52.396;16.796;2023-02-21T16:48:05;101442.50;;;9.14;63.07
44044;BME280;29709;52.396;16.796;2023-02-21T16:51:11;101446.82;;;9.16;63.26
44044;BME280;29709;52.396;16.796;2023-02-21T16:54:20;101453.61;;;9.12;63.58
44044;BME280;29709;52.396;16.796;2023-02-21T16:57:23;101460.83;;;9.13;63.49
44044;BME280;29709;52.396;16.796;2023-02-21T17:01:09;101458.23;;;9.12;63.54
44044;BME280;29709;52.396;16.796;2023-02-21T17:07:22;101458.78;;;9.06;63.63
44044;BME280;29709;52.396;16.796;2023-02-21T17:10:27;101465.59;;;9.02;63.90
44044;BME280;29709;52.396;16.796;2023-02-21T17:13:30;101472.08;;;9.01;64.21
44044;BME280;29709;52.396;16.796;2023-02-21T17:16:34;101470.91;;;9.03;64.37
44044;BME280;29709;52.396;16.796;2023-02-21T17:20:06;101476.69;;;9.00;64.31
44044;BME280;29709;52.396;16.796;2023-02-21T17:23:10;101486.80;;;9.00;64.46
44044;BME280;29709;52.396;16.796;2023-02-21T17:26:16;101480.87;;;9.04;64.51
44044;BME280;29709;52.396;16.796;2023-02-21T17:29:20;101485.95;;;9.09;64.61
44044;BME280;29709;52.396;16.796;2023-02-21T17:32:23;101488.40;;;9.12;64.30
44044;BME280;29709;52.396;16.796;2023-02-21T17:35:28;101473.66;;;9.03;64.41
44044;BME280;29709;52.396;16.796;2023-02-21T17:38:32;101505.73;;;9.22;64.40
44044;BME280;29709;52.396;16.796;2023-02-21T17:41:35;101503.70;;;9.14;64.51
44044;BME280;29709;52.396;16.796;2023-02-21T17:44:42;101501.97;;;9.13;64.79
44044;BME280;29709;52.396;16.796;2023-02-21T17:48:14;101501.80;;;9.05;64.75
44044;BME280;29709;52.396;16.796;2023-02-21T17:51:23;101504.98;;;9.01;64.53
44044;BME280;29709;52.396;16.796;2023-02-21T17:54:28;101510.86;;;8.96;65.15
44044;BME280;29709;52.396;16.796;2023-02-21T17:57:31;101506.97;;;8.89;65.42
44044;BME280;29709;52.396;16.796;2023-02-21T18:00:40;101502.64;;;8.86;65.28
44044;BME280;29709;52.396;16.796;2023-02-21T18:03:46;101511.84;;;8.76;65.55
44044;BME280;29709;52.396;16.796;2023-02-21T18:06:49;101515.56;;;8.75;65.64
44044;BME280;29709;52.396;16.796;2023-02-21T18:09:53;101520.75;;;8.68;65.77
44044;BME280;29709;52.396;16.796;2023-02-21T18:13:22;101516.82;;;8.61;66.38
44044;BME280;29709;52.396;16.796;2023-02-21T18:16:26;101514.80;;;8.63;65.94
44044;BME280;29709;52.396;16.796;2023-02-21T18:19:29;101517.98;;;8.58;66.34
44044;BME280;29709;52.396;16.796;2023-02-21T18:22:32;101526.92;;;8.60;66.21
44044;BME280;29709;52.396;16.796;2023-02-21T18:25:35;101531.54;;;8.60;66.29
44044;BME280;29709;52.396;16.796;2023-02-21T18:28:38;101536.29;;;8.58;66.45
44044;BME280;29709;52.396;16.796;2023-02-21T18:31:42;101538.70;;;8.51;66.63
44044;BME280;29709;52.396;16.796;2023-02-21T18:34:45;101534.51;;;8.47;66.70
44044;BME280;29709;52.396;16.796;2023-02-21T18:37:48;101539.66;;;8.41;66.45
44044;BME280;29709;52.396;16.796;2023-02-21T18:40:51;101545.91;;;8.31;66.82
44044;BME280;29709;52.396;16.796;2023-02-21T18:44:22;101553.82;;;8.25;66.94
44044;BME280;29709;52.396;16.796;2023-02-21T18:47:26;101552.48;;;8.19;66.80
44044;BME280;29709;52.396;16.796;2023-02-21T18:50:29;101556.71;;;8.23;67.20
44044;BME280;29709;52.396;16.796;2023-02-21T18:53:32;101556.21;;;8.18;66.99
44044;BME280;29709;52.396;16.796;2023-02-21T18:56:35;101557.50;;;8.14;67.04
44044;BME280;29709;52.396;16.796;2023-02-21T18:59:39;101560.24;;;8.14;67.40
44044;BME280;29709;52.396;16.796;2023-02-21T19:02:42;101552.02;;;8.14;67.27